Time;durP1;ratioP1;P1;durP2;ratioP2;P2;SDS_P1;SDS_P2;PMS_P1;PMS_P2;Temp;Humidity;BMP_temperature;BMP_pressure;BME280_temperature;BME280_humidity;BME280_pressure;Samples;Min_cycle;Max_cycle;Signal;HPM_P1;HPM_P2
2024/01/31 10:28:58;;;;;;;35.60;15.70;;;;;;;8.23;93.17;98167.66;2084815;28;20560;-65
2024/01/31 10:30:11;;;;;;;28.90;17.50;;;;;;;8.32;92.68;98175.41;2079945;28;20196;-65
2024/01/31 10:31:13;;;;;;;26.42;17.08;;;;;;;8.34;92.16;98163.22;2081134;28;20284;-65
2024/01/31 10:32:15;;;;;;;29.00;17.30;;;;;;;8.35;91.90;98175.34;2082265;28;20193;-65
2024/01/31 10:33:20;;;;;;;32.22;17.48;;;;;;;8.71;90.69;98169.75;2077204;28;20725;-65
2024/01/31 10:34:23;;;;;;;26.52;16.73;;;;;;;8.64;90.70;98169.81;2074683;28;20654;-65
2024/01/31 10:35:37;;;;;;;43.83;17.10;;;;;;;8.62;90.38;98168.13;2075201;28;20235;-65
2024/01/31 10:37:01;;;;;;;32.85;16.63;;;;;;;8.68;90.49;98172.41;2073572;28;20731;-65
2024/01/31 10:39:20;;;;;;;27.58;14.38;;;;;;;8.53;90.73;98166.47;2085518;28;20566;-65
2024/01/31 10:45:02;;;;;;;27.40;15.85;;;;;;;8.69;89.92;98164.56;2100849;27;20581;-65
2024/01/31 10:47:07;;;;;;;30.35;15.35;;;;;;;8.45;90.42;98153.53;2085640;28;20567;-65
2024/01/31 10:53:26;;;;;;;26.38;13.10;;;;;;;8.62;89.12;98158.56;2078806;27;20572;-64
2024/01/31 10:54:31;;;;;;;24.23;13.07;;;;;;;8.81;88.75;98160.94;2072846;28;20228;-65
2024/01/31 10:55:33;;;;;;;20.80;12.75;;;;;;;8.96;88.06;98146.84;2073799;28;20232;-65
2024/01/31 10:56:37;;;;;;;25.17;14.43;;;;;;;9.15;87.66;98137.88;2072539;28;20202;-66
2024/01/31 10:57:39;;;;;;;19.70;12.15;;;;;;;9.30;86.69;98141.13;2073977;28;20217;-65
2024/01/31 10:58:41;;;;;;;33.25;12.13;;;;;;;9.46;86.38;98149.56;2077416;28;20316;-65
2024/01/31 10:59:43;;;;;;;20.05;12.30;;;;;;;9.38;85.11;98133.19;2076977;28;20189;-65
2024/01/31 11:00:48;;;;;;;17.38;11.43;;;;;;;9.59;84.55;98140.63;2074157;28;20221;-65
2024/01/31 11:01:58;;;;;;;19.02;11.45;;;;;;;9.89;83.32;98127.97;2074238;28;20550;-65
2024/01/31 11:03:00;;;;;;;16.33;10.30;;;;;;;10.37;81.85;98141.88;2072127;28;20190;-65
2024/01/31 11:04:02;;;;;;;17.85;10.45;;;;;;;11.02;80.27;98135.25;2073786;28;20304;-65
2024/01/31 11:05:04;;;;;;;21.08;12.43;;;;;;;11.23;78.66;98137.38;2074852;28;20832;-65
2024/01/31 11:06:07;;;;;;;15.27;10.43;;;;;;;11.03;78.88;98132.59;2073097;28;20201;-65
2024/01/31 11:07:18;;;;;;;25.17;12.50;;;;;;;11.07;78.58;98134.28;2073691;28;20198;-65
2024/01/31 11:08:21;;;;;;;22.05;12.40;;;;;;;11.20;78.50;98137.47;2073435;28;20228;-65
2024/01/31 11:09:24;;;;;;;19.02;11.45;;;;;;;11.74;76.84;98130.94;2077578;28;20634;-65
2024/01/31 11:10:27;;;;;;;16.15;10.60;;;;;;;11.50;77.09;98135.00;2076633;28;20194;-65
2024/01/31 11:11:29;;;;;;;22.15;10.30;;;;;;;11.15;77.78;98113.19;2070268;28;20844;-65
2024/01/31 11:12:31;;;;;;;20.92;10.20;;;;;;;10.82;77.86;98122.63;2071802;28;20201;-65
2024/01/31 11:13:35;;;;;;;24.63;11.52;;;;;;;10.85;78.57;98122.59;2072820;28;21049;-65
2024/01/31 11:14:40;;;;;;;14.93;10.35;;;;;;;10.95;78.50;98118.88;2072489;28;20210;-65
2024/01/31 11:15:42;;;;;;;21.25;11.50;;;;;;;10.80;78.25;98121.84;2070252;28;20669;-66
2024/01/31 11:16:43;;;;;;;25.90;11.63;;;;;;;10.87;78.11;98113.81;2072420;28;20227;-65
2024/01/31 11:17:45;;;;;;;15.57;10.70;;;;;;;10.75;78.19;98106.25;2071624;28;20193;-66
2024/01/31 11:18:51;;;;;;;23.20;11.07;;;;;;;10.68;79.00;98109.88;2072747;28;20756;-65
2024/01/31 11:19:58;;;;;;;19.95;11.15;;;;;;;11.36;77.45;98105.72;2074390;28;20202;-65
2024/01/31 11:20:59;;;;;;;20.90;10.25;;;;;;;11.32;76.96;98111.91;2074251;28;20204;-65
2024/01/31 11:22:01;;;;;;;18.10;11.60;;;;;;;11.17;77.00;98116.59;2074817;28;20193;-65
2024/01/31 11:23:03;;;;;;;19.83;11.48;;;;;;;11.08;77.47;98108.97;2069034;28;20721;-65
2024/01/31 11:24:05;;;;;;;20.02;11.05;;;;;;;11.12;77.42;98108.00;2070389;28;20256;-65
2024/01/31 11:25:11;;;;;;;21.38;12.27;;;;;;;11.35;77.18;98115.31;2075386;28;20202;-65
2024/01/31 11:26:14;;;;;;;21.55;11.90;;;;;;;12.21;75.48;98112.25;2074491;28;20256;-65
2024/01/31 11:27:18;;;;;;;23.40;11.93;;;;;;;-145.49;100.00;55703.94;2074567;28;20193;-65
2024/01/31 11:28:22;;;;;;;19.40;11.80;;;;;;;-145.49;100.00;55703.94;2063800;28;20590;-65
2024/01/31 11:29:23;;;;;;;21.38;12.25;;;;;;;-145.49;100.00;55703.94;2076509;28;20284;-65
2024/01/31 11:30:25;;;;;;;20.40;10.70;;;;;;;-145.49;100.00;55703.94;2077401;28;20197;-65
2024/01/31 11:31:28;;;;;;;19.30;10.88;;;;;;;-145.49;100.00;55703.94;2071823;28;20202;-65
2024/01/31 11:32:29;;;;;;;18.17;10.45;;;;;;;-145.49;100.00;55703.94;2072586;28;20213;-66
2024/01/31 11:33:33;;;;;;;20.75;11.45;;;;;;;-145.49;100.00;55703.94;2068916;28;20232;-65
2024/01/31 11:34:36;;;;;;;21.58;10.32;;;;;;;-145.49;100.00;55703.94;2076961;28;20201;-65
2024/01/31 11:35:38;;;;;;;30.33;10.95;;;;;;;-145.49;100.00;55703.94;2076404;28;21011;-65
2024/01/31 11:36:40;;;;;;;22.30;11.38;;;;;;;-145.49;100.00;55703.94;2074616;28;20213;-65
2024/01/31 11:37:41;;;;;;;21.40;10.52;;;;;;;-145.49;100.00;55703.94;2070266;28;20211;-66
2024/01/31 11:38:42;;;;;;;26.27;10.75;;;;;;;-145.49;100.00;55703.94;2065934;28;20226;-66
2024/01/31 11:39:44;;;;;;;23.80;11.57;;;;;;;-145.49;100.00;55703.94;2073809;28;20216;-66
2024/01/31 11:40:45;;;;;;;17.52;11.82;;;;;;;-145.49;100.00;55703.94;2069720;28;20244;-68
2024/01/31 11:41:47;;;;;;;42.10;21.70;;;;;;;-145.49;100.00;55703.94;2074228;28;20193;-67
2024/01/31 11:42:50;;;;;;;25.05;11.68;;;;;;;-145.49;100.00;55703.94;2074474;28;20335;-68
2024/01/31 11:43:51;;;;;;;24.55;12.85;;;;;;;-145.49;100.00;55703.94;2069499;28;20261;-68
2024/01/31 11:44:53;;;;;;;24.88;13.65;;;;;;;-145.49;100.00;55703.94;2071886;28;20256;-69
2024/01/31 11:45:55;;;;;;;20.98;13.30;;;;;;;-145.49;100.00;55703.94;2072784;28;20625;-68
2024/01/31 11:46:56;;;;;;;19.90;10.43;;;;;;;-145.49;100.00;55703.94;2071843;28;20246;-68
2024/01/31 11:47:58;;;;;;;23.25;10.45;;;;;;;-145.49;100.00;55703.94;2073480;28;20798;-66
2024/01/31 11:49:00;;;;;;;16.05;9.50;;;;;;;-145.49;100.00;55703.94;2073889;28;20232;-68
2024/01/31 11:50:02;;;;;;;22.63;10.68;;;;;;;-145.49;100.00;55703.94;2073913;28;20841;-68
2024/01/31 11:51:04;;;;;;;17.30;10.32;;;;;;;-145.49;100.00;55703.94;2075068;28;20344;-68
2024/01/31 11:52:06;;;;;;;22.95;10.88;;;;;;;-145.49;100.00;55703.94;2069963;28;20252;-68
2024/01/31 11:53:08;;;;;;;23.38;9.43;;;;;;;-145.49;100.00;55703.94;2069661;28;20594;-68
2024/01/31 11:54:10;;;;;;;16.98;9.02;;;;;;;-145.49;100.00;55703.94;2072870;28;20700;-68
2024/01/31 11:55:12;;;;;;;16.42;9.68;;;;;;;-145.49;100.00;55703.94;2070986;28;20248;-68
2024/01/31 11:56:13;;;;;;;16.65;8.55;;;;;;;-145.49;100.00;55703.94;2073500;28;20198;-70
2024/01/31 11:57:15;;;;;;;18.02;8.73;;;;;;;-145.49;100.00;55703.94;2072991;28;20283;-70
2024/01/31 11:58:17;;;;;;;25.55;9.15;;;;;;;-145.49;100.00;55703.94;2071325;28;20233;-70
2024/01/31 11:59:19;;;;;;;23.55;9.85;;;;;;;-145.49;100.00;55703.94;2073368;28;20620;-70
2024/01/31 12:00:21;;;;;;;15.27;8.38;;;;;;;-145.49;100.00;55703.94;2073493;28;20208;-70
2024/01/31 12:01:24;;;;;;;18.50;8.80;;;;;;;-145.49;100.00;55703.94;2074656;28;20197;-71
2024/01/31 12:02:25;;;;;;;15.13;8.82;;;;;;;-145.49;100.00;55703.94;2072694;28;20202;-70
2024/01/31 12:03:27;;;;;;;17.73;9.02;;;;;;;-145.49;100.00;55703.94;2071269;28;20217;-70
2024/01/31 12:04:29;;;;;;;19.50;8.77;;;;;;;-145.49;100.00;55703.94;2066177;28;20729;-70
2024/01/31 12:05:30;;;;;;;18.60;8.40;;;;;;;-145.49;100.00;55703.94;2064755;28;20702;-70
2024/01/31 12:06:32;;;;;;;15.65;7.95;;;;;;;-145.49;100.00;55703.94;2071786;28;20205;-70
2024/01/31 12:07:34;;;;;;;18.83;11.32;;;;;;;-145.49;100.00;55703.94;2064094;28;20718;-70
2024/01/31 12:08:35;;;;;;;20.58;9.50;;;;;;;-145.49;100.00;55703.94;2068483;28;20229;-70
2024/01/31 12:09:37;;;;;;;17.75;9.77;;;;;;;-145.49;100.00;55703.94;2067674;28;20195;-70
2024/01/31 12:10:38;;;;;;;16.02;9.45;;;;;;;-145.49;100.00;55703.94;2066777;28;20221;-70
2024/01/31 12:11:40;;;;;;;16.40;8.82;;;;;;;-145.49;100.00;55703.94;2065716;28;20534;-71
2024/01/31 12:12:41;;;;;;;21.60;9.52;;;;;;;-145.49;100.00;55703.94;2064597;28;20604;-70
2024/01/31 12:13:44;;;;;;;18.33;9.45;;;;;;;-145.49;100.00;55703.94;2066541;28;20244;-70
2024/01/31 12:14:46;;;;;;;20.15;10.43;;;;;;;-145.49;100.00;55703.94;2068204;28;20233;-70
2024/01/31 12:15:48;;;;;;;19.73;9.80;;;;;;;-145.49;100.00;55703.94;2069016;28;20223;-70
2024/01/31 12:16:56;;;;;;;23.70;10.20;;;;;;;-145.49;100.00;55703.94;2067848;28;20714;-70
2024/01/31 12:18:00;;;;;;;21.45;11.30;;;;;;;-145.49;100.00;55703.94;2067829;28;20293;-68
2024/01/31 12:19:02;;;;;;;24.48;11.25;;;;;;;-145.49;100.00;55703.94;2067737;28;20337;-68
2024/01/31 12:20:12;;;;;;;23.88;12.13;;;;;;;-145.49;100.00;55703.94;2068216;28;20208;-69
2024/01/31 12:21:13;;;;;;;21.90;11.15;;;;;;;-145.49;100.00;55703.94;2067489;28;20189;-69
2024/01/31 12:22:18;;;;;;;20.70;11.45;;;;;;;-145.49;100.00;55703.94;2067386;28;20233;-69
2024/01/31 12:23:20;;;;;;;25.48;13.15;;;;;;;-145.49;100.00;55703.94;2061119;28;20239;-68
2024/01/31 12:24:21;;;;;;;19.42;12.02;;;;;;;-145.49;100.00;55703.94;2066640;28;20580;-68
2024/01/31 12:25:24;;;;;;;18.67;11.50;;;;;;;-145.49;100.00;55703.94;2067641;28;20194;-69
2024/01/31 12:26:26;;;;;;;22.85;13.23;;;;;;;-145.49;100.00;55703.94;2067898;28;20214;-69
2024/01/31 12:27:27;;;;;;;22.00;12.20;;;;;;;-145.49;100.00;55703.94;2068270;28;20616;-69
2024/01/31 12:28:29;;;;;;;25.20;12.50;;;;;;;-145.49;100.00;55703.94;2065188;28;20316;-68
2024/01/31 12:29:31;;;;;;;30.98;12.65;;;;;;;-145.49;100.00;55703.94;2071464;28;20233;-69
2024/01/31 12:30:33;;;;;;;26.65;12.07;;;;;;;-145.49;100.00;55703.94;2067631;28;20210;-69
2024/01/31 12:31:34;;;;;;;21.95;12.77;;;;;;;-145.49;100.00;55703.94;2068116;28;20574;-69
2024/01/31 12:32:35;;;;;;;26.00;12.48;;;;;;;-145.49;100.00;55703.94;2068772;28;20650;-69
2024/01/31 12:33:37;;;;;;;24.35;12.13;;;;;;;-145.49;100.00;55703.94;2067809;28;20301;-69
2024/01/31 12:34:39;;;;;;;21.92;11.65;;;;;;;-145.49;100.00;55703.94;2068327;28;20874;-68
2024/01/31 12:35:40;;;;;;;24.40;12.93;;;;;;;-145.49;100.00;55703.94;2068266;28;20194;-69
2024/01/31 12:36:42;;;;;;;21.65;12.98;;;;;;;-145.49;100.00;55703.94;2068041;28;20569;-69
2024/01/31 12:37:44;;;;;;;29.02;13.00;;;;;;;-145.49;100.00;55703.94;2068420;28;20199;-69
2024/01/31 12:38:45;;;;;;;21.10;13.45;;;;;;;-145.49;100.00;55703.94;2066834;28;20316;-69
2024/01/31 12:39:47;;;;;;;19.10;11.63;;;;;;;-145.49;100.00;55703.94;2067621;28;20651;-69
2024/01/31 12:40:51;;;;;;;18.63;11.60;;;;;;;-145.49;100.00;55703.94;2068768;28;20205;-68
2024/01/31 12:41:53;;;;;;;25.45;13.18;;;;;;;-145.49;100.00;55703.94;2065844;28;20205;-68
2024/01/31 12:42:56;;;;;;;24.63;12.98;;;;;;;-145.49;100.00;55703.94;2064879;28;20202;-68
2024/01/31 12:43:58;;;;;;;28.95;12.75;;;;;;;-145.49;100.00;55703.94;2065256;28;20218;-68
2024/01/31 12:45:00;;;;;;;25.90;11.90;;;;;;;-145.49;100.00;55703.94;2068406;28;20206;-68
2024/01/31 12:46:02;;;;;;;20.83;12.13;;;;;;;-145.49;100.00;55703.94;2064264;28;20210;-68
2024/01/31 12:47:08;;;;;;;25.88;12.23;;;;;;;-145.49;100.00;55703.94;2067546;28;20614;-69
2024/01/31 12:48:09;;;;;;;22.35;12.63;;;;;;;-145.49;100.00;55703.94;2065444;28;20876;-68
2024/01/31 12:49:11;;;;;;;28.58;13.32;;;;;;;-145.49;100.00;55703.94;2068090;28;20197;-68
2024/01/31 12:50:12;;;;;;;23.83;13.73;;;;;;;-145.49;100.00;55703.94;2065644;28;20203;-68
2024/01/31 12:51:14;;;;;;;21.58;11.90;;;;;;;-145.49;100.00;55703.94;2068124;28;20241;-68
2024/01/31 12:52:16;;;;;;;22.67;13.70;;;;;;;-145.49;100.00;55703.94;2067603;28;20534;-68
2024/01/31 12:53:17;;;;;;;24.65;13.18;;;;;;;-145.49;100.00;55703.94;2066157;28;20316;-68
2024/01/31 12:54:18;;;;;;;28.88;13.27;;;;;;;-145.49;100.00;55703.94;2067846;28;20249;-68
2024/01/31 12:55:20;;;;;;;25.48;12.27;;;;;;;-145.49;100.00;55703.94;2066798;28;20210;-68
2024/01/31 12:56:21;;;;;;;28.90;13.38;;;;;;;-145.49;100.00;55703.94;2071480;28;20197;-68
2024/01/31 12:57:23;;;;;;;26.02;12.73;;;;;;;-145.49;100.00;55703.94;2071580;28;20267;-69
2024/01/31 12:58:24;;;;;;;107.53;64.75;;;;;;;-145.49;100.00;55703.94;2068070;28;20232;-69
2024/01/31 12:59:27;;;;;;;61.03;34.85;;;;;;;-145.49;100.00;55703.94;2066852;28;20696;-69
2024/01/31 13:00:28;;;;;;;36.83;20.38;;;;;;;-145.49;100.00;55703.94;2067925;28;20206;-69
2024/01/31 13:01:30;;;;;;;137.68;76.15;;;;;;;-145.49;100.00;55703.94;2068240;28;20243;-69
2024/01/31 13:02:31;;;;;;;24.90;13.65;;;;;;;-145.49;100.00;55703.94;2064040;28;20286;-68
2024/01/31 13:03:35;;;;;;;26.23;15.13;;;;;;;-145.49;100.00;55703.94;2056645;28;20280;-68
2024/01/31 13:04:37;;;;;;;27.80;12.63;;;;;;;-145.49;100.00;55703.94;2066360;28;20712;-68
2024/01/31 13:05:40;;;;;;;28.83;12.98;;;;;;;-145.49;100.00;55703.94;2067988;28;20197;-69
2024/01/31 13:06:42;;;;;;;20.70;11.57;;;;;;;-145.49;100.00;55703.94;2066842;28;20194;-69
2024/01/31 13:07:44;;;;;;;18.88;11.70;;;;;;;-145.49;100.00;55703.94;2065784;28;20194;-68
2024/01/31 13:08:46;;;;;;;26.33;12.80;;;;;;;-145.49;100.00;55703.94;2069211;28;20222;-69
2024/01/31 13:09:48;;;;;;;22.90;11.15;;;;;;;-145.49;100.00;55703.94;2071015;28;20237;-68
2024/01/31 13:10:49;;;;;;;18.27;11.48;;;;;;;-145.49;100.00;55703.94;2066864;28;20875;-68
2024/01/31 13:11:51;;;;;;;21.73;11.90;;;;;;;-145.49;100.00;55703.94;2067492;28;20221;-69
2024/01/31 13:12:52;;;;;;;24.77;12.68;;;;;;;-145.49;100.00;55703.94;2067882;28;20202;-70
2024/01/31 13:13:54;;;;;;;22.35;12.10;;;;;;;-145.49;100.00;55703.94;2066523;28;20241;-69
2024/01/31 13:14:55;;;;;;;24.67;13.13;;;;;;;-145.49;100.00;55703.94;2065676;28;20272;-69
2024/01/31 13:15:57;;;;;;;21.20;12.30;;;;;;;-145.49;100.00;55703.94;2067154;28;20285;-69
2024/01/31 13:17:01;;;;;;;25.45;13.48;;;;;;;-145.49;100.00;55703.94;2067680;28;20204;-70
2024/01/31 13:18:04;;;;;;;18.42;11.23;;;;;;;-145.49;100.00;55703.94;2065991;28;20615;-69
2024/01/31 13:19:07;;;;;;;23.98;11.80;;;;;;;-145.49;100.00;55703.94;2066428;28;20211;-70
2024/01/31 13:20:10;;;;;;;21.65;12.70;;;;;;;-145.49;100.00;55703.94;2067117;28;20198;-70
2024/01/31 13:21:11;;;;;;;29.60;11.88;;;;;;;-145.49;100.00;55703.94;2067981;28;20589;-70
2024/01/31 13:22:13;;;;;;;23.77;12.00;;;;;;;-145.49;100.00;55703.94;2071409;28;20202;-70
2024/01/31 13:23:15;;;;;;;26.45;12.75;;;;;;;-145.49;100.00;55703.94;2069178;28;20208;-69
2024/01/31 13:24:17;;;;;;;22.08;11.05;;;;;;;-145.49;100.00;55703.94;2063895;28;21098;-70
2024/01/31 13:25:18;;;;;;;23.80;12.27;;;;;;;-145.49;100.00;55703.94;2064811;28;20561;-69
2024/01/31 13:26:20;;;;;;;23.35;13.15;;;;;;;-145.49;100.00;55703.94;2069162;28;20236;-69
2024/01/31 13:27:21;;;;;;;22.92;12.88;;;;;;;-145.49;100.00;55703.94;2063859;28;20741;-70
2024/01/31 13:28:23;;;;;;;36.78;14.73;;;;;;;-145.49;100.00;55703.94;2066342;28;20556;-70
2024/01/31 13:29:25;;;;;;;23.33;12.48;;;;;;;-145.49;100.00;55703.94;2066827;28;20197;-70
2024/01/31 13:30:27;;;;;;;25.83;12.57;;;;;;;-145.49;100.00;55703.94;2067002;28;20194;-69
2024/01/31 13:31:30;;;;;;;27.25;13.70;;;;;;;-145.49;100.00;55703.94;2068078;28;20209;-69
2024/01/31 13:32:31;;;;;;;26.50;12.20;;;;;;;-145.49;100.00;55703.94;2067902;28;20693;-70
2024/01/31 13:33:33;;;;;;;30.10;12.65;;;;;;;-145.49;100.00;55703.94;2067574;28;20574;-69
2024/01/31 13:34:35;;;;;;;29.98;13.30;;;;;;;-145.49;100.00;55703.94;2067501;28;20613;-70
2024/01/31 13:35:36;;;;;;;25.45;12.10;;;;;;;-145.49;100.00;55703.94;2067265;28;20202;-70
2024/01/31 13:36:38;;;;;;;27.25;13.57;;;;;;;-145.49;100.00;55703.94;2065727;28;20202;-69
2024/01/31 13:37:40;;;;;;;24.13;13.02;;;;;;;-145.49;100.00;55703.94;2065262;28;20260;-70
2024/01/31 13:38:41;;;;;;;22.20;12.23;;;;;;;-145.49;100.00;55703.94;2065118;28;20229;-70
2024/01/31 13:39:43;;;;;;;22.33;12.10;;;;;;;-145.49;100.00;55703.94;2065446;28;20932;-70
2024/01/31 13:40:44;;;;;;;22.58;12.63;;;;;;;-145.49;100.00;55703.94;2067189;28;20199;-70
2024/01/31 13:41:46;;;;;;;27.98;12.82;;;;;;;-145.49;100.00;55703.94;2063710;28;20626;-70
2024/01/31 13:42:50;;;;;;;19.42;12.40;;;;;;;-145.49;100.00;55703.94;2063883;28;20198;-70
2024/01/31 13:43:52;;;;;;;26.70;12.98;;;;;;;-145.49;100.00;55703.94;2066242;28;20687;-70
2024/01/31 13:44:55;;;;;;;26.77;12.50;;;;;;;-145.49;100.00;55703.94;2067942;28;20284;-69
2024/01/31 13:45:57;;;;;;;23.75;13.05;;;;;;;-145.49;100.00;55703.94;2068877;28;20225;-70
2024/01/31 13:46:58;;;;;;;25.00;13.23;;;;;;;-145.49;100.00;55703.94;2068473;28;20198;-69
2024/01/31 13:48:00;;;;;;;21.92;12.18;;;;;;;-145.49;100.00;55703.94;2065875;28;20284;-69
2024/01/31 13:49:01;;;;;;;21.25;12.10;;;;;;;-145.49;100.00;55703.94;2064832;28;20225;-69
2024/01/31 13:50:04;;;;;;;23.95;11.85;;;;;;;-145.49;100.00;55703.94;2068455;28;20723;-69
2024/01/31 13:51:05;;;;;;;28.90;13.25;;;;;;;-145.49;100.00;55703.94;2068950;28;20236;-69
2024/01/31 13:52:07;;;;;;;28.90;13.45;;;;;;;-145.49;100.00;55703.94;2067580;28;20289;-69
2024/01/31 13:53:09;;;;;;;31.52;14.48;;;;;;;-145.49;100.00;55703.94;2066051;28;20591;-69
2024/01/31 13:54:10;;;;;;;26.20;13.40;;;;;;;-145.49;100.00;55703.94;2068702;28;20205;-69
2024/01/31 13:55:12;;;;;;;22.95;12.50;;;;;;;-145.49;100.00;55703.94;2063749;28;20194;-69
2024/01/31 13:56:13;;;;;;;24.33;13.52;;;;;;;-145.49;100.00;55703.94;2066145;28;20209;-69
2024/01/31 13:57:15;;;;;;;25.60;12.65;;;;;;;-145.49;100.00;55703.94;2066339;28;20229;-69
2024/01/31 13:58:16;;;;;;;29.15;14.18;;;;;;;-145.49;100.00;55703.94;2065824;28;20198;-69
2024/01/31 13:59:18;;;;;;;24.95;13.52;;;;;;;-145.49;100.00;55703.94;2067446;28;20260;-70
2024/01/31 14:00:19;;;;;;;28.02;13.88;;;;;;;-145.49;100.00;55703.94;2065689;28;20206;-69
2024/01/31 14:01:21;;;;;;;29.75;13.07;;;;;;;-145.49;100.00;55703.94;2067352;28;20195;-70
2024/01/31 14:02:24;;;;;;;24.20;11.98;;;;;;;-145.49;100.00;55703.94;2066473;28;20260;-69
2024/01/31 14:03:25;;;;;;;27.77;13.07;;;;;;;-145.49;100.00;55703.94;2065411;28;20225;-69
2024/01/31 14:04:27;;;;;;;27.60;13.57;;;;;;;-145.49;100.00;55703.94;2066536;28;20193;-69
2024/01/31 14:05:28;;;;;;;25.65;13.82;;;;;;;-145.49;100.00;55703.94;2063350;28;20206;-69
2024/01/31 14:06:30;;;;;;;25.08;13.63;;;;;;;-145.49;100.00;55703.94;2063649;28;20241;-69
2024/01/31 14:07:31;;;;;;;25.42;12.52;;;;;;;-145.49;100.00;55703.94;2066710;28;20202;-69
2024/01/31 14:08:33;;;;;;;31.27;12.75;;;;;;;-145.49;100.00;55703.94;2067012;28;20249;-70
2024/01/31 14:09:34;;;;;;;26.70;12.90;;;;;;;-145.49;100.00;55703.94;2068247;28;20669;-68
2024/01/31 14:10:36;;;;;;;24.08;12.48;;;;;;;-145.49;100.00;55703.94;2066285;28;20608;-70
2024/01/31 14:11:37;;;;;;;21.23;12.48;;;;;;;-145.49;100.00;55703.94;2065759;28;20201;-69
2024/01/31 14:12:39;;;;;;;21.45;12.07;;;;;;;-145.49;100.00;55703.94;2069465;28;20198;-69
2024/01/31 14:13:40;;;;;;;26.60;13.50;;;;;;;-145.49;100.00;55703.94;2069515;28;20221;-69
2024/01/31 14:14:43;;;;;;;22.92;11.65;;;;;;;-145.49;100.00;55703.94;2065839;28;20206;-69
2024/01/31 14:15:44;;;;;;;28.17;13.20;;;;;;;-145.49;100.00;55703.94;2065317;28;20658;-69
2024/01/31 14:16:46;;;;;;;27.15;12.20;;;;;;;-145.49;100.00;55703.94;2063375;28;20209;-62
2024/01/31 14:17:47;;;;;;;22.42;12.43;;;;;;;-145.49;100.00;55703.94;2063810;28;20289;-62
2024/01/31 14:18:49;;;;;;;24.85;12.75;;;;;;;-145.49;100.00;55703.94;2065995;28;20338;-62
2024/01/31 14:19:50;;;;;;;23.55;12.48;;;;;;;-145.49;100.00;55703.94;2064429;28;20255;-62
2024/01/31 14:20:52;;;;;;;28.00;13.35;;;;;;;-145.49;100.00;55703.94;2065988;28;20202;-62
2024/01/31 14:21:54;;;;;;;29.58;14.52;;;;;;;12.21;75.48;98112.25;2066873;28;20203;-62
2024/01/31 14:23:01;;;;;;;24.85;13.38;;;;;;;11.34;75.88;97995.91;2066597;28;20237;-63
2024/01/31 14:24:23;;;;;;;28.90;13.57;;;;;;;11.16;76.87;97996.38;2058761;28;20223;-62
2024/01/31 14:25:30;;;;;;;22.38;13.23;;;;;;;11.07;76.83;98000.09;2058808;28;20198;-63
2024/01/31 14:26:32;;;;;;;29.92;14.75;;;;;;;10.95;77.56;97999.50;2058985;28;20282;-62
2024/01/31 14:27:34;;;;;;;33.90;14.50;;;;;;;10.94;77.36;98005.63;2058710;28;20206;-62
2024/01/31 14:28:38;;;;;;;33.83;13.90;;;;;;;12.16;74.72;98012.00;2054980;28;20636;-62
2024/01/31 14:29:40;;;;;;;25.50;14.63;;;;;;;13.50;70.52;98003.44;2059298;28;20679;-63
2024/01/31 14:30:41;;;;;;;33.38;13.27;;;;;;;13.80;68.42;98009.38;2058597;28;20207;-63
2024/01/31 14:31:46;;;;;;;32.20;12.77;;;;;;;14.31;67.41;97996.09;2055291;28;20203;-62
2024/01/31 14:32:48;;;;;;;26.88;12.90;;;;;;;14.46;66.32;97997.28;2056031;28;20202;-63
2024/01/31 14:33:49;;;;;;;26.20;12.82;;;;;;;14.65;65.76;97987.81;2059784;28;20240;-62
2024/01/31 14:34:53;;;;;;;26.73;12.82;;;;;;;14.34;66.19;97990.75;2065064;28;20220;-62
2024/01/31 14:35:54;;;;;;;24.95;12.63;;;;;;;13.92;67.34;97981.78;2067816;28;20201;-62
2024/01/31 14:36:56;;;;;;;27.10;12.68;;;;;;;13.94;67.17;97982.59;2067464;28;20198;-63
2024/01/31 14:37:58;;;;;;;25.48;12.20;;;;;;;13.69;67.68;97993.13;2067150;28;20198;-63
2024/01/31 14:38:59;;;;;;;26.02;11.93;;;;;;;12.94;69.61;97997.41;2062538;28;20233;-63
2024/01/31 14:40:02;;;;;;;25.02;11.98;;;;;;;12.50;70.63;97991.81;2065811;28;20213;-62
2024/01/31 14:41:03;;;;;;;23.13;12.23;;;;;;;12.15;71.31;97972.75;2069117;28;20198;-62
2024/01/31 14:42:05;;;;;;;28.00;13.05;;;;;;;11.77;72.83;97983.44;2067862;28;20197;-62
2024/01/31 14:43:09;;;;;;;25.73;11.75;;;;;;;12.00;72.93;97987.16;2067481;28;20224;-62
2024/01/31 14:44:12;;;;;;;29.42;12.27;;;;;;;12.34;72.11;97989.66;2064072;28;20251;-62
2024/01/31 14:45:13;;;;;;;28.10;12.43;;;;;;;13.14;69.95;97975.75;2067292;28;20644;-62
2024/01/31 14:46:15;;;;;;;27.38;12.40;;;;;;;13.71;68.81;97986.91;2066036;28;20926;-62
2024/01/31 14:47:17;;;;;;;19.80;11.30;;;;;;;13.55;68.08;97970.00;2067886;28;20193;-62
2024/01/31 14:48:20;;;;;;;22.85;12.10;;;;;;;12.57;70.41;97985.47;2067857;28;20267;-62
2024/01/31 14:49:22;;;;;;;18.30;11.63;;;;;;;12.46;70.92;97980.56;2066591;28;20232;-62
2024/01/31 14:50:24;;;;;;;19.17;10.55;;;;;;;12.21;71.78;97972.59;2067175;28;20201;-62
2024/01/31 14:51:25;;;;;;;21.88;12.07;;;;;;;11.24;73.80;97990.06;2067710;28;20576;-62
2024/01/31 14:52:29;;;;;;;22.50;12.18;;;;;;;10.71;76.69;97977.44;2067249;28;20198;-62
2024/01/31 14:53:31;;;;;;;21.60;11.90;;;;;;;10.55;76.92;97983.91;2062684;28;20309;-62
2024/01/31 14:54:33;;;;;;;23.75;11.80;;;;;;;10.38;78.12;97977.31;2065073;28;20209;-61
2024/01/31 14:55:34;;;;;;;21.45;12.75;;;;;;;10.75;77.09;97973.00;2065739;28;20214;-61
2024/01/31 14:56:47;;;;;;;23.48;10.32;;;;;;;10.80;75.91;97978.13;2070812;28;20209;-62
2024/01/31 14:57:49;;;;;;;27.95;11.43;;;;;;;10.71;77.00;97963.53;2068814;28;20667;-61
2024/01/31 14:58:50;;;;;;;18.15;10.95;;;;;;;10.56;76.95;97952.56;2065401;28;20224;-61
2024/01/31 14:59:52;;;;;;;23.73;10.82;;;;;;;10.36;77.50;97970.41;2067883;28;20252;-63
2024/01/31 15:00:54;;;;;;;21.00;11.23;;;;;;;10.30;78.23;97976.63;2068583;28;20204;-62
2024/01/31 15:01:56;;;;;;;26.88;11.48;;;;;;;10.20;78.99;97982.94;2066976;28;20213;-62
2024/01/31 15:02:57;;;;;;;21.55;12.00;;;;;;;9.96;79.50;97979.97;2067554;28;20202;-61
2024/01/31 15:03:59;;;;;;;26.02;11.20;;;;;;;10.05;80.07;97982.34;2065199;28;20237;-62
2024/01/31 15:05:00;;;;;;;23.15;11.50;;;;;;;10.23;79.24;97988.97;2063357;28;20206;-62
2024/01/31 15:06:04;;;;;;;21.48;11.23;;;;;;;10.37;77.69;97995.66;2065603;28;20215;-62
2024/01/31 15:07:06;;;;;;;22.83;11.95;;;;;;;10.41;78.13;97997.28;2060846;28;20902;-61
2024/01/31 15:08:08;;;;;;;28.92;11.10;;;;;;;10.38;78.22;97998.22;2064009;28;20198;-61
2024/01/31 15:09:15;;;;;;;21.05;11.45;;;;;;;10.68;77.79;97994.94;2067018;28;20198;-62
2024/01/31 15:10:17;;;;;;;25.30;10.68;;;;;;;10.97;76.87;97975.06;2066644;28;20247;-62
2024/01/31 15:11:18;;;;;;;24.98;10.02;;;;;;;11.10;76.54;97992.19;2063635;28;20287;-61
2024/01/31 15:12:23;;;;;;;18.67;9.90;;;;;;;11.15;76.64;97987.69;2063456;28;20297;-62
2024/01/31 15:13:24;;;;;;;26.73;10.23;;;;;;;11.16;76.55;97989.41;2065466;28;20724;-61
2024/01/31 15:14:26;;;;;;;23.65;9.80;;;;;;;11.22;75.81;97978.81;2068233;28;20230;-61
2024/01/31 15:15:27;;;;;;;20.60;10.15;;;;;;;11.19;75.83;97984.09;2067198;28;20207;-61
2024/01/31 15:16:29;;;;;;;20.85;10.48;;;;;;;10.86;75.87;97975.38;2066953;28;20268;-61
2024/01/31 15:17:30;;;;;;;29.63;11.05;;;;;;;10.84;76.88;97975.38;2066629;28;20229;-61
2024/01/31 15:21:50;;;;;;;46.17;22.83;;;;;;;10.15;78.76;97979.56;2085558;28;20557;-64
2024/01/31 15:22:52;;;;;;;28.60;12.63;;;;;;;10.38;78.59;97977.31;2082449;28;20255;-62
2024/01/31 15:23:54;;;;;;;19.05;11.02;;;;;;;10.65;77.96;97974.97;2076646;28;20238;-62
2024/01/31 15:24:55;;;;;;;23.75;10.52;;;;;;;11.18;76.58;97976.28;2064561;28;20196;-62
2024/01/31 15:25:57;;;;;;;21.25;9.77;;;;;;;11.51;74.97;97968.47;2066537;28;20202;-64